sensor_id;sensor_type;location;lat;lon;timestamp;P1;durP1;ratioP1;P2;durP2;ratioP2
12908;SDS011;6522;49.622;6.126;2023-09-08T00:01:42;11.70;;;10.60;;
12908;SDS011;6522;49.622;6.126;2023-09-08T00:04:28;12.50;;;11.27;;
12908;SDS011;6522;49.622;6.126;2023-09-08T00:07:15;13.93;;;11.70;;
12908;SDS011;6522;49.622;6.126;2023-09-08T00:10:02;12.15;;;10.68;;
12908;SDS011;6522;49.622;6.126;2023-09-08T00:12:49;12.27;;;11.07;;
12908;SDS011;6522;49.622;6.126;2023-09-08T00:15:36;12.45;;;11.15;;
12908;SDS011;6522;49.622;6.126;2023-09-08T00:18:23;12.43;;;11.23;;
12908;SDS011;6522;49.622;6.126;2023-09-08T00:21:10;13.87;;;12.57;;
12908;SDS011;6522;49.622;6.126;2023-09-08T00:23:56;12.20;;;11.00;;
12908;SDS011;6522;49.622;6.126;2023-09-08T00:26:43;13.10;;;11.10;;
12908;SDS011;6522;49.622;6.126;2023-09-08T00:29:30;15.37;;;12.33;;
12908;SDS011;6522;49.622;6.126;2023-09-08T00:32:17;13.32;;;11.93;;
12908;SDS011;6522;49.622;6.126;2023-09-08T00:35:07;12.73;;;11.32;;
12908;SDS011;6522;49.622;6.126;2023-09-08T00:37:51;19.87;;;12.57;;
12908;SDS011;6522;49.622;6.126;2023-09-08T00:40:38;13.30;;;11.90;;
12908;SDS011;6522;49.622;6.126;2023-09-08T00:43:24;13.98;;;11.48;;
12908;SDS011;6522;49.622;6.126;2023-09-08T00:46:11;13.90;;;12.67;;
12908;SDS011;6522;49.622;6.126;2023-09-08T00:48:58;12.10;;;10.90;;
12908;SDS011;6522;49.622;6.126;2023-09-08T00:51:44;12.27;;;11.07;;
12908;SDS011;6522;49.622;6.126;2023-09-08T00:54:31;13.00;;;11.60;;
12908;SDS011;6522;49.622;6.126;2023-09-08T00:57:18;13.23;;;11.82;;
12908;SDS011;6522;49.622;6.126;2023-09-08T01:00:05;14.50;;;13.00;;
12908;SDS011;6522;49.622;6.126;2023-09-08T01:02:52;15.53;;;13.90;;
12908;SDS011;6522;49.622;6.126;2023-09-08T01:05:39;14.00;;;12.27;;
12908;SDS011;6522;49.622;6.126;2023-09-08T01:08:26;13.27;;;11.98;;
12908;SDS011;6522;49.622;6.126;2023-09-08T01:11:13;15.33;;;13.70;;
12908;SDS011;6522;49.622;6.126;2023-09-08T01:13:59;14.55;;;12.70;;
12908;SDS011;6522;49.622;6.126;2023-09-08T01:16:46;16.33;;;12.82;;
12908;SDS011;6522;49.622;6.126;2023-09-08T01:19:33;14.70;;;13.03;;
12908;SDS011;6522;49.622;6.126;2023-09-08T01:22:40;14.20;;;12.73;;
12908;SDS011;6522;49.622;6.126;2023-09-08T01:25:22;14.83;;;13.20;;
12908;SDS011;6522;49.622;6.126;2023-09-08T01:28:08;12.50;;;11.30;;
12908;SDS011;6522;49.622;6.126;2023-09-08T01:30:56;14.02;;;12.55;;
12908;SDS011;6522;49.622;6.126;2023-09-08T01:33:42;14.93;;;12.60;;
12908;SDS011;6522;49.622;6.126;2023-09-08T01:36:29;14.53;;;13.03;;
12908;SDS011;6522;49.622;6.126;2023-09-08T01:39:16;14.15;;;12.80;;
12908;SDS011;6522;49.622;6.126;2023-09-08T01:42:03;13.95;;;12.52;;
12908;SDS011;6522;49.622;6.126;2023-09-08T01:44:50;13.63;;;12.43;;
12908;SDS011;6522;49.622;6.126;2023-09-08T01:47:37;12.73;;;11.43;;
12908;SDS011;6522;49.622;6.126;2023-09-08T01:50:23;13.98;;;12.57;;
12908;SDS011;6522;49.622;6.126;2023-09-08T01:53:10;15.23;;;12.10;;
12908;SDS011;6522;49.622;6.126;2023-09-08T01:55:56;14.32;;;12.82;;
12908;SDS011;6522;49.622;6.126;2023-09-08T01:58:43;15.07;;;13.57;;
12908;SDS011;6522;49.622;6.126;2023-09-08T02:01:30;13.27;;;11.93;;
12908;SDS011;6522;49.622;6.126;2023-09-08T02:04:17;14.30;;;12.80;;
12908;SDS011;6522;49.622;6.126;2023-09-08T02:07:03;14.00;;;12.63;;
12908;SDS011;6522;49.622;6.126;2023-09-08T02:09:51;13.95;;;12.48;;
12908;SDS011;6522;49.622;6.126;2023-09-08T02:12:37;16.00;;;11.90;;
12908;SDS011;6522;49.622;6.126;2023-09-08T02:15:24;13.67;;;12.27;;
12908;SDS011;6522;49.622;6.126;2023-09-08T02:18:10;14.48;;;12.98;;
12908;SDS011;6522;49.622;6.126;2023-09-08T02:20:57;15.70;;;14.00;;
12908;SDS011;6522;49.622;6.126;2023-09-08T02:23:44;19.40;;;13.97;;
12908;SDS011;6522;49.622;6.126;2023-09-08T02:26:31;16.52;;;14.07;;
12908;SDS011;6522;49.622;6.126;2023-09-08T02:29:18;16.50;;;14.80;;
12908;SDS011;6522;49.622;6.126;2023-09-08T02:32:05;14.23;;;12.87;;
12908;SDS011;6522;49.622;6.126;2023-09-08T02:34:52;15.65;;;14.05;;
12908;SDS011;6522;49.622;6.126;2023-09-08T02:37:39;15.50;;;13.50;;
12908;SDS011;6522;49.622;6.126;2023-09-08T02:40:25;17.27;;;13.68;;
12908;SDS011;6522;49.622;6.126;2023-09-08T02:43:12;15.83;;;14.23;;
12908;SDS011;6522;49.622;6.126;2023-09-08T02:45:59;15.50;;;13.43;;
12908;SDS011;6522;49.622;6.126;2023-09-08T02:48:46;16.48;;;13.52;;
12908;SDS011;6522;49.622;6.126;2023-09-08T02:51:33;16.73;;;13.98;;
12908;SDS011;6522;49.622;6.126;2023-09-08T02:54:19;15.47;;;13.87;;
12908;SDS011;6522;49.622;6.126;2023-09-08T02:57:06;14.98;;;13.48;;
12908;SDS011;6522;49.622;6.126;2023-09-08T02:59:53;15.53;;;13.93;;
12908;SDS011;6522;49.622;6.126;2023-09-08T03:02:40;15.85;;;13.15;;
12908;SDS011;6522;49.622;6.126;2023-09-08T03:05:26;15.82;;;13.15;;
12908;SDS011;6522;49.622;6.126;2023-09-08T03:08:13;15.38;;;13.77;;
12908;SDS011;6522;49.622;6.126;2023-09-08T03:11:00;16.07;;;13.10;;
12908;SDS011;6522;49.622;6.126;2023-09-08T03:13:47;14.52;;;13.02;;
12908;SDS011;6522;49.622;6.126;2023-09-08T03:16:34;13.80;;;12.37;;
12908;SDS011;6522;49.622;6.126;2023-09-08T03:19:21;15.00;;;13.57;;
12908;SDS011;6522;49.622;6.126;2023-09-08T03:22:07;14.40;;;12.90;;
12908;SDS011;6522;49.622;6.126;2023-09-08T03:24:54;14.07;;;11.65;;
12908;SDS011;6522;49.622;6.126;2023-09-08T03:27:41;15.55;;;12.93;;
12908;SDS011;6522;49.622;6.126;2023-09-08T03:30:27;15.98;;;12.00;;
12908;SDS011;6522;49.622;6.126;2023-09-08T03:33:14;14.75;;;13.23;;
12908;SDS011;6522;49.622;6.126;2023-09-08T03:36:01;16.05;;;14.10;;
12908;SDS011;6522;49.622;6.126;2023-09-08T03:38:48;15.15;;;12.40;;
12908;SDS011;6522;49.622;6.126;2023-09-08T03:41:34;17.00;;;13.38;;
12908;SDS011;6522;49.622;6.126;2023-09-08T03:44:21;14.18;;;12.77;;
12908;SDS011;6522;49.622;6.126;2023-09-08T03:47:08;14.32;;;12.70;;
12908;SDS011;6522;49.622;6.126;2023-09-08T03:49:55;16.35;;;13.23;;
12908;SDS011;6522;49.622;6.126;2023-09-08T03:52:42;16.48;;;13.95;;
12908;SDS011;6522;49.622;6.126;2023-09-08T03:55:29;15.35;;;13.85;;
12908;SDS011;6522;49.622;6.126;2023-09-08T03:58:15;14.05;;;12.65;;
12908;SDS011;6522;49.622;6.126;2023-09-08T04:01:02;15.40;;;13.80;;
12908;SDS011;6522;49.622;6.126;2023-09-08T04:03:49;14.60;;;13.15;;
12908;SDS011;6522;49.622;6.126;2023-09-08T04:06:35;13.55;;;12.25;;
12908;SDS011;6522;49.622;6.126;2023-09-08T04:09:22;15.63;;;13.60;;
12908;SDS011;6522;49.622;6.126;2023-09-08T04:12:09;16.77;;;14.13;;
12908;SDS011;6522;49.622;6.126;2023-09-08T04:14:56;14.82;;;13.13;;
12908;SDS011;6522;49.622;6.126;2023-09-08T04:17:42;16.87;;;13.20;;
12908;SDS011;6522;49.622;6.126;2023-09-08T04:20:29;13.15;;;11.75;;
12908;SDS011;6522;49.622;6.126;2023-09-08T04:23:16;14.55;;;13.00;;
12908;SDS011;6522;49.622;6.126;2023-09-08T04:26:03;15.00;;;12.77;;
12908;SDS011;6522;49.622;6.126;2023-09-08T04:28:49;14.32;;;12.88;;
12908;SDS011;6522;49.622;6.126;2023-09-08T04:31:36;15.43;;;13.15;;
12908;SDS011;6522;49.622;6.126;2023-09-08T04:34:22;15.65;;;12.85;;
12908;SDS011;6522;49.622;6.126;2023-09-08T04:37:09;14.38;;;12.88;;
12908;SDS011;6522;49.622;6.126;2023-09-08T04:39:56;17.98;;;13.02;;
12908;SDS011;6522;49.622;6.126;2023-09-08T04:42:42;13.73;;;12.32;;
12908;SDS011;6522;49.622;6.126;2023-09-08T04:45:29;15.55;;;12.88;;
12908;SDS011;6522;49.622;6.126;2023-09-08T04:48:16;17.35;;;15.18;;
12908;SDS011;6522;49.622;6.126;2023-09-08T04:51:02;15.45;;;13.88;;
12908;SDS011;6522;49.622;6.126;2023-09-08T04:53:49;14.93;;;13.48;;
12908;SDS011;6522;49.622;6.126;2023-09-08T04:56:35;17.05;;;13.85;;
12908;SDS011;6522;49.622;6.126;2023-09-08T04:59:22;17.73;;;15.00;;
12908;SDS011;6522;49.622;6.126;2023-09-08T05:02:09;16.70;;;14.95;;
12908;SDS011;6522;49.622;6.126;2023-09-08T05:04:56;16.90;;;14.32;;
12908;SDS011;6522;49.622;6.126;2023-09-08T05:07:42;18.80;;;14.20;;
12908;SDS011;6522;49.622;6.126;2023-09-08T05:10:29;16.37;;;14.38;;
12908;SDS011;6522;49.622;6.126;2023-09-08T05:13:16;17.80;;;14.90;;
12908;SDS011;6522;49.622;6.126;2023-09-08T05:16:03;15.85;;;14.27;;
12908;SDS011;6522;49.622;6.126;2023-09-08T05:18:49;17.15;;;14.95;;
12908;SDS011;6522;49.622;6.126;2023-09-08T05:21:36;16.48;;;14.63;;
12908;SDS011;6522;49.622;6.126;2023-09-08T05:24:23;16.02;;;14.40;;
12908;SDS011;6522;49.622;6.126;2023-09-08T05:27:10;19.48;;;16.12;;
12908;SDS011;6522;49.622;6.126;2023-09-08T05:29:57;15.52;;;13.73;;
12908;SDS011;6522;49.622;6.126;2023-09-08T05:32:44;22.65;;;15.07;;
12908;SDS011;6522;49.622;6.126;2023-09-08T05:35:31;17.15;;;14.85;;
12908;SDS011;6522;49.622;6.126;2023-09-08T05:38:17;15.10;;;13.60;;
12908;SDS011;6522;49.622;6.126;2023-09-08T05:41:04;16.30;;;13.55;;
12908;SDS011;6522;49.622;6.126;2023-09-08T05:43:51;15.93;;;14.07;;
12908;SDS011;6522;49.622;6.126;2023-09-08T05:46:38;16.52;;;13.80;;
12908;SDS011;6522;49.622;6.126;2023-09-08T05:49:25;16.55;;;14.73;;
12908;SDS011;6522;49.622;6.126;2023-09-08T05:52:12;17.98;;;14.10;;
12908;SDS011;6522;49.622;6.126;2023-09-08T05:54:58;15.77;;;14.20;;
12908;SDS011;6522;49.622;6.126;2023-09-08T05:57:45;16.20;;;13.30;;
12908;SDS011;6522;49.622;6.126;2023-09-08T06:00:32;15.82;;;14.07;;
12908;SDS011;6522;49.622;6.126;2023-09-08T06:03:18;15.95;;;14.25;;
12908;SDS011;6522;49.622;6.126;2023-09-08T06:06:05;16.23;;;13.82;;
12908;SDS011;6522;49.622;6.126;2023-09-08T06:08:52;17.95;;;15.50;;
12908;SDS011;6522;49.622;6.126;2023-09-08T06:11:39;18.75;;;15.50;;
12908;SDS011;6522;49.622;6.126;2023-09-08T06:14:25;17.10;;;15.43;;
12908;SDS011;6522;49.622;6.126;2023-09-08T06:17:12;16.98;;;15.07;;
12908;SDS011;6522;49.622;6.126;2023-09-08T06:19:59;16.55;;;14.75;;
12908;SDS011;6522;49.622;6.126;2023-09-08T06:22:46;14.95;;;13.30;;
12908;SDS011;6522;49.622;6.126;2023-09-08T06:25:33;17.50;;;13.57;;
12908;SDS011;6522;49.622;6.126;2023-09-08T06:28:20;17.37;;;15.43;;
12908;SDS011;6522;49.622;6.126;2023-09-08T06:31:07;17.33;;;13.75;;
12908;SDS011;6522;49.622;6.126;2023-09-08T06:33:53;18.53;;;16.50;;
12908;SDS011;6522;49.622;6.126;2023-09-08T06:36:40;15.68;;;14.18;;
12908;SDS011;6522;49.622;6.126;2023-09-08T06:39:27;17.67;;;14.95;;
12908;SDS011;6522;49.622;6.126;2023-09-08T06:42:15;15.75;;;13.38;;
12908;SDS011;6522;49.622;6.126;2023-09-08T06:45:01;14.50;;;13.10;;
12908;SDS011;6522;49.622;6.126;2023-09-08T06:47:48;13.45;;;12.10;;
12908;SDS011;6522;49.622;6.126;2023-09-08T06:50:35;16.93;;;13.47;;
12908;SDS011;6522;49.622;6.126;2023-09-08T06:53:22;12.70;;;11.50;;
12908;SDS011;6522;49.622;6.126;2023-09-08T06:56:08;15.00;;;11.12;;
12908;SDS011;6522;49.622;6.126;2023-09-08T06:58:55;14.30;;;12.37;;
12908;SDS011;6522;49.622;6.126;2023-09-08T07:01:42;18.10;;;11.67;;
12908;SDS011;6522;49.622;6.126;2023-09-08T07:04:28;12.43;;;11.12;;
12908;SDS011;6522;49.622;6.126;2023-09-08T07:07:15;11.80;;;10.60;;
12908;SDS011;6522;49.622;6.126;2023-09-08T07:10:05;15.10;;;11.23;;
12908;SDS011;6522;49.622;6.126;2023-09-08T07:12:52;12.50;;;11.30;;
12908;SDS011;6522;49.622;6.126;2023-09-08T07:15:38;12.65;;;11.35;;
12908;SDS011;6522;49.622;6.126;2023-09-08T07:18:26;12.77;;;11.47;;
12908;SDS011;6522;49.622;6.126;2023-09-08T07:21:12;12.52;;;11.32;;
12908;SDS011;6522;49.622;6.126;2023-09-08T07:23:59;12.73;;;11.52;;
12908;SDS011;6522;49.622;6.126;2023-09-08T07:26:46;14.00;;;12.50;;
12908;SDS011;6522;49.622;6.126;2023-09-08T07:29:32;12.88;;;11.57;;
12908;SDS011;6522;49.622;6.126;2023-09-08T07:32:19;13.77;;;12.27;;
12908;SDS011;6522;49.622;6.126;2023-09-08T07:35:06;14.60;;;13.40;;
12908;SDS011;6522;49.622;6.126;2023-09-08T07:37:53;13.52;;;12.13;;
12908;SDS011;6522;49.622;6.126;2023-09-08T07:40:40;13.30;;;12.20;;
12908;SDS011;6522;49.622;6.126;2023-09-08T07:43:27;14.23;;;13.17;;
12908;SDS011;6522;49.622;6.126;2023-09-08T07:46:13;13.70;;;12.60;;
12908;SDS011;6522;49.622;6.126;2023-09-08T07:49:00;14.02;;;12.82;;
12908;SDS011;6522;49.622;6.126;2023-09-08T07:51:47;15.32;;;14.13;;
12908;SDS011;6522;49.622;6.126;2023-09-08T07:54:33;16.33;;;15.13;;
12908;SDS011;6522;49.622;6.126;2023-09-08T07:57:20;15.73;;;14.52;;
12908;SDS011;6522;49.622;6.126;2023-09-08T08:00:07;17.20;;;16.10;;
12908;SDS011;6522;49.622;6.126;2023-09-08T08:02:55;16.40;;;15.20;;
12908;SDS011;6522;49.622;6.126;2023-09-08T08:05:41;17.63;;;16.53;;
12908;SDS011;6522;49.622;6.126;2023-09-08T08:08:28;18.23;;;17.10;;
12908;SDS011;6522;49.622;6.126;2023-09-08T08:11:15;17.63;;;16.53;;
12908;SDS011;6522;49.622;6.126;2023-09-08T08:14:01;19.10;;;17.90;;
12908;SDS011;6522;49.622;6.126;2023-09-08T08:16:48;19.80;;;18.50;;
12908;SDS011;6522;49.622;6.126;2023-09-08T08:19:35;19.77;;;18.10;;
12908;SDS011;6522;49.622;6.126;2023-09-08T08:22:22;18.10;;;16.90;;
12908;SDS011;6522;49.622;6.126;2023-09-08T08:25:08;20.37;;;19.10;;
12908;SDS011;6522;49.622;6.126;2023-09-08T08:27:55;21.17;;;19.77;;
12908;SDS011;6522;49.622;6.126;2023-09-08T08:30:45;20.70;;;19.40;;
12908;SDS011;6522;49.622;6.126;2023-09-08T08:33:32;21.50;;;20.10;;
12908;SDS011;6522;49.622;6.126;2023-09-08T08:36:18;19.90;;;18.60;;
12908;SDS011;6522;49.622;6.126;2023-09-08T08:39:05;21.03;;;19.50;;
12908;SDS011;6522;49.622;6.126;2023-09-08T08:41:52;19.20;;;18.10;;
12908;SDS011;6522;49.622;6.126;2023-09-08T08:44:38;21.63;;;20.00;;
12908;SDS011;6522;49.622;6.126;2023-09-08T08:47:26;20.67;;;19.40;;
12908;SDS011;6522;49.622;6.126;2023-09-08T08:50:12;22.07;;;20.60;;
12908;SDS011;6522;49.622;6.126;2023-09-08T08:52:59;21.60;;;20.30;;
12908;SDS011;6522;49.622;6.126;2023-09-08T08:55:46;22.43;;;20.93;;
12908;SDS011;6522;49.622;6.126;2023-09-08T08:58:33;20.12;;;18.85;;
12908;SDS011;6522;49.622;6.126;2023-09-08T09:01:20;21.73;;;20.33;;
12908;SDS011;6522;49.622;6.126;2023-09-08T09:04:07;22.47;;;21.13;;
12908;SDS011;6522;49.622;6.126;2023-09-08T09:06:53;22.77;;;21.40;;
12908;SDS011;6522;49.622;6.126;2023-09-08T09:09:40;21.27;;;20.17;;
12908;SDS011;6522;49.622;6.126;2023-09-08T09:12:27;22.70;;;21.50;;
12908;SDS011;6522;49.622;6.126;2023-09-08T09:15:14;20.65;;;19.35;;
12908;SDS011;6522;49.622;6.126;2023-09-08T09:18:04;23.70;;;22.30;;
12908;SDS011;6522;49.622;6.126;2023-09-08T09:20:54;22.20;;;20.60;;
12908;SDS011;6522;49.622;6.126;2023-09-08T09:23:37;24.00;;;22.53;;
12908;SDS011;6522;49.622;6.126;2023-09-08T09:26:25;23.57;;;22.20;;
12908;SDS011;6522;49.622;6.126;2023-09-08T09:29:14;24.53;;;23.23;;
12908;SDS011;6522;49.622;6.126;2023-09-08T09:32:04;24.13;;;22.80;;
12908;SDS011;6522;49.622;6.126;2023-09-08T09:34:51;24.43;;;23.03;;
12908;SDS011;6522;49.622;6.126;2023-09-08T09:37:40;23.97;;;22.47;;
12908;SDS011;6522;49.622;6.126;2023-09-08T09:40:27;26.40;;;24.50;;
12908;SDS011;6522;49.622;6.126;2023-09-08T09:43:11;24.70;;;23.40;;
12908;SDS011;6522;49.622;6.126;2023-09-08T09:46:00;24.90;;;23.23;;
12908;SDS011;6522;49.622;6.126;2023-09-08T09:48:50;23.97;;;22.57;;
12908;SDS011;6522;49.622;6.126;2023-09-08T09:51:34;28.03;;;26.40;;
12908;SDS011;6522;49.622;6.126;2023-09-08T09:54:20;23.40;;;22.10;;
12908;SDS011;6522;49.622;6.126;2023-09-08T09:57:09;24.10;;;22.67;;
12908;SDS011;6522;49.622;6.126;2023-09-08T09:59:54;24.80;;;23.30;;
12908;SDS011;6522;49.622;6.126;2023-09-08T10:02:41;24.20;;;22.80;;
12908;SDS011;6522;49.622;6.126;2023-09-08T10:05:27;23.90;;;22.40;;
12908;SDS011;6522;49.622;6.126;2023-09-08T10:08:15;23.97;;;22.60;;
12908;SDS011;6522;49.622;6.126;2023-09-08T10:11:01;22.93;;;21.73;;
12908;SDS011;6522;49.622;6.126;2023-09-08T10:13:50;22.52;;;20.92;;
12908;SDS011;6522;49.622;6.126;2023-09-08T10:16:35;23.53;;;22.33;;
12908;SDS011;6522;49.622;6.126;2023-09-08T10:19:21;24.47;;;22.47;;
12908;SDS011;6522;49.622;6.126;2023-09-08T10:22:09;24.73;;;22.90;;
12908;SDS011;6522;49.622;6.126;2023-09-08T10:24:55;23.53;;;22.03;;
12908;SDS011;6522;49.622;6.126;2023-09-08T10:27:41;22.50;;;21.10;;
12908;SDS011;6522;49.622;6.126;2023-09-08T10:30:28;21.90;;;20.40;;
12908;SDS011;6522;49.622;6.126;2023-09-08T10:33:15;24.03;;;22.60;;
12908;SDS011;6522;49.622;6.126;2023-09-08T10:36:02;24.73;;;22.90;;
12908;SDS011;6522;49.622;6.126;2023-09-08T10:38:48;24.37;;;22.97;;
12908;SDS011;6522;49.622;6.126;2023-09-08T10:41:36;24.23;;;22.93;;
12908;SDS011;6522;49.622;6.126;2023-09-08T10:44:23;23.07;;;21.87;;
12908;SDS011;6522;49.622;6.126;2023-09-08T10:47:09;23.03;;;21.63;;
12908;SDS011;6522;49.622;6.126;2023-09-08T10:49:56;23.23;;;22.03;;
12908;SDS011;6522;49.622;6.126;2023-09-08T10:52:43;23.30;;;22.00;;
12908;SDS011;6522;49.622;6.126;2023-09-08T10:55:37;23.40;;;21.93;;
12908;SDS011;6522;49.622;6.126;2023-09-08T10:58:30;22.77;;;21.27;;
12908;SDS011;6522;49.622;6.126;2023-09-08T11:01:16;21.87;;;20.57;;
12908;SDS011;6522;49.622;6.126;2023-09-08T11:04:03;22.13;;;20.83;;
12908;SDS011;6522;49.622;6.126;2023-09-08T11:06:49;21.80;;;20.60;;
12908;SDS011;6522;49.622;6.126;2023-09-08T11:09:36;21.20;;;19.90;;
12908;SDS011;6522;49.622;6.126;2023-09-08T11:12:25;21.90;;;20.57;;
12908;SDS011;6522;49.622;6.126;2023-09-08T11:15:09;22.20;;;21.00;;
12908;SDS011;6522;49.622;6.126;2023-09-08T11:17:56;21.23;;;19.83;;
12908;SDS011;6522;49.622;6.126;2023-09-08T11:20:43;21.60;;;20.50;;
12908;SDS011;6522;49.622;6.126;2023-09-08T11:23:30;22.90;;;21.50;;
12908;SDS011;6522;49.622;6.126;2023-09-08T11:26:16;22.27;;;20.87;;
12908;SDS011;6522;49.622;6.126;2023-09-08T11:29:03;21.87;;;20.67;;
12908;SDS011;6522;49.622;6.126;2023-09-08T11:31:51;22.27;;;20.63;;
12908;SDS011;6522;49.622;6.126;2023-09-08T11:34:36;21.77;;;20.57;;
12908;SDS011;6522;49.622;6.126;2023-09-08T11:37:23;21.47;;;20.17;;
12908;SDS011;6522;49.622;6.126;2023-09-08T11:40:09;21.93;;;20.63;;
12908;SDS011;6522;49.622;6.126;2023-09-08T11:42:56;22.50;;;21.20;;
12908;SDS011;6522;49.622;6.126;2023-09-08T11:45:43;23.50;;;22.13;;
12908;SDS011;6522;49.622;6.126;2023-09-08T11:48:30;21.60;;;20.33;;
12908;SDS011;6522;49.622;6.126;2023-09-08T11:51:17;22.60;;;21.20;;
12908;SDS011;6522;49.622;6.126;2023-09-08T11:54:03;20.87;;;19.37;;
12908;SDS011;6522;49.622;6.126;2023-09-08T11:56:50;22.90;;;21.60;;
12908;SDS011;6522;49.622;6.126;2023-09-08T11:59:37;22.67;;;21.57;;
12908;SDS011;6522;49.622;6.126;2023-09-08T12:02:23;24.10;;;22.70;;
12908;SDS011;6522;49.622;6.126;2023-09-08T12:05:20;22.00;;;20.90;;
12908;SDS011;6522;49.622;6.126;2023-09-08T12:08:03;23.00;;;21.73;;
12908;SDS011;6522;49.622;6.126;2023-09-08T12:10:46;23.40;;;22.00;;
12908;SDS011;6522;49.622;6.126;2023-09-08T12:13:33;23.97;;;22.03;;
12908;SDS011;6522;49.622;6.126;2023-09-08T12:16:21;23.90;;;22.40;;
12908;SDS011;6522;49.622;6.126;2023-09-08T12:19:08;23.60;;;22.00;;
12908;SDS011;6522;49.622;6.126;2023-09-08T12:21:55;21.42;;;19.80;;
12908;SDS011;6522;49.622;6.126;2023-09-08T12:27:41;23.50;;;22.10;;
12908;SDS011;6522;49.622;6.126;2023-09-08T12:30:27;24.40;;;22.90;;
12908;SDS011;6522;49.622;6.126;2023-09-08T12:33:17;25.47;;;23.77;;
12908;SDS011;6522;49.622;6.126;2023-09-08T12:36:12;24.30;;;22.60;;
12908;SDS011;6522;49.622;6.126;2023-09-08T12:38:57;23.80;;;22.40;;
12908;SDS011;6522;49.622;6.126;2023-09-08T12:41:44;23.00;;;21.60;;
12908;SDS011;6522;49.622;6.126;2023-09-08T12:44:30;24.13;;;22.50;;
12908;SDS011;6522;49.622;6.126;2023-09-08T12:47:17;23.53;;;22.03;;
12908;SDS011;6522;49.622;6.126;2023-09-08T12:50:04;23.07;;;21.63;;
12908;SDS011;6522;49.622;6.126;2023-09-08T12:52:50;22.97;;;21.67;;
12908;SDS011;6522;49.622;6.126;2023-09-08T12:55:38;22.20;;;20.77;;
12908;SDS011;6522;49.622;6.126;2023-09-08T12:58:24;22.17;;;20.60;;
12908;SDS011;6522;49.622;6.126;2023-09-08T13:01:11;20.58;;;19.37;;
12908;SDS011;6522;49.622;6.126;2023-09-08T13:03:58;20.20;;;19.00;;
12908;SDS011;6522;49.622;6.126;2023-09-08T13:06:45;19.47;;;18.17;;
12908;SDS011;6522;49.622;6.126;2023-09-08T13:09:31;21.10;;;19.90;;
12908;SDS011;6522;49.622;6.126;2023-09-08T13:12:18;22.13;;;20.70;;
12908;SDS011;6522;49.622;6.126;2023-09-08T13:15:05;22.80;;;21.30;;
12908;SDS011;6522;49.622;6.126;2023-09-08T13:17:52;22.93;;;21.63;;
12908;SDS011;6522;49.622;6.126;2023-09-08T13:20:39;22.00;;;20.83;;
12908;SDS011;6522;49.622;6.126;2023-09-08T13:23:25;22.20;;;21.00;;
12908;SDS011;6522;49.622;6.126;2023-09-08T13:26:12;20.40;;;18.90;;
12908;SDS011;6522;49.622;6.126;2023-09-08T13:28:59;21.03;;;19.83;;
12908;SDS011;6522;49.622;6.126;2023-09-08T13:31:46;20.50;;;19.50;;
12908;SDS011;6522;49.622;6.126;2023-09-08T13:34:33;20.60;;;19.50;;
12908;SDS011;6522;49.622;6.126;2023-09-08T13:37:20;21.60;;;20.30;;
12908;SDS011;6522;49.622;6.126;2023-09-08T13:40:07;21.20;;;20.20;;
12908;SDS011;6522;49.622;6.126;2023-09-08T13:42:54;21.50;;;20.43;;
12908;SDS011;6522;49.622;6.126;2023-09-08T13:45:41;21.80;;;20.70;;
12908;SDS011;6522;49.622;6.126;2023-09-08T13:48:28;21.90;;;20.37;;
12908;SDS011;6522;49.622;6.126;2023-09-08T13:51:15;18.50;;;17.40;;
12908;SDS011;6522;49.622;6.126;2023-09-08T13:54:01;21.23;;;20.10;;
12908;SDS011;6522;49.622;6.126;2023-09-08T13:56:57;20.50;;;19.30;;
12908;SDS011;6522;49.622;6.126;2023-09-08T13:59:34;20.40;;;19.40;;
12908;SDS011;6522;49.622;6.126;2023-09-08T14:02:21;20.30;;;19.30;;
12908;SDS011;6522;49.622;6.126;2023-09-08T14:05:08;21.33;;;20.20;;
12908;SDS011;6522;49.622;6.126;2023-09-08T14:07:55;21.27;;;20.13;;
12908;SDS011;6522;49.622;6.126;2023-09-08T14:10:42;21.33;;;19.93;;
12908;SDS011;6522;49.622;6.126;2023-09-08T14:13:29;20.93;;;19.93;;
12908;SDS011;6522;49.622;6.126;2023-09-08T14:16:17;19.00;;;17.90;;
12908;SDS011;6522;49.622;6.126;2023-09-08T14:19:02;22.03;;;20.73;;
12908;SDS011;6522;49.622;6.126;2023-09-08T14:21:49;22.10;;;20.90;;
12908;SDS011;6522;49.622;6.126;2023-09-08T14:24:36;22.53;;;21.33;;
12908;SDS011;6522;49.622;6.126;2023-09-08T14:27:23;19.48;;;18.33;;
12908;SDS011;6522;49.622;6.126;2023-09-08T14:30:09;21.13;;;20.03;;
12908;SDS011;6522;49.622;6.126;2023-09-08T14:32:56;20.20;;;19.20;;
12908;SDS011;6522;49.622;6.126;2023-09-08T14:35:43;18.90;;;17.90;;
12908;SDS011;6522;49.622;6.126;2023-09-08T14:38:30;20.57;;;19.50;;
12908;SDS011;6522;49.622;6.126;2023-09-08T14:41:16;21.87;;;20.57;;
12908;SDS011;6522;49.622;6.126;2023-09-08T14:44:04;20.50;;;19.50;;
12908;SDS011;6522;49.622;6.126;2023-09-08T14:46:51;21.20;;;20.00;;
12908;SDS011;6522;49.622;6.126;2023-09-08T14:49:38;20.90;;;19.67;;
12908;SDS011;6522;49.622;6.126;2023-09-08T14:52:24;23.07;;;21.77;;
12908;SDS011;6522;49.622;6.126;2023-09-08T14:55:11;22.20;;;21.10;;
12908;SDS011;6522;49.622;6.126;2023-09-08T14:57:58;21.83;;;20.50;;
12908;SDS011;6522;49.622;6.126;2023-09-08T15:00:45;22.27;;;21.07;;
12908;SDS011;6522;49.622;6.126;2023-09-08T15:03:32;22.70;;;21.43;;
12908;SDS011;6522;49.622;6.126;2023-09-08T15:06:18;22.00;;;20.50;;
12908;SDS011;6522;49.622;6.126;2023-09-08T15:09:05;20.45;;;19.35;;
12908;SDS011;6522;49.622;6.126;2023-09-08T15:11:52;22.33;;;21.00;;
12908;SDS011;6522;49.622;6.126;2023-09-08T15:14:39;22.10;;;21.00;;
12908;SDS011;6522;49.622;6.126;2023-09-08T15:17:25;19.58;;;18.30;;
12908;SDS011;6522;49.622;6.126;2023-09-08T15:20:12;20.20;;;19.00;;
12908;SDS011;6522;49.622;6.126;2023-09-08T15:22:58;21.93;;;20.73;;
12908;SDS011;6522;49.622;6.126;2023-09-08T15:25:55;21.53;;;20.17;;
12908;SDS011;6522;49.622;6.126;2023-09-08T15:28:41;22.77;;;21.47;;
12908;SDS011;6522;49.622;6.126;2023-09-08T15:31:28;22.63;;;21.43;;
12908;SDS011;6522;49.622;6.126;2023-09-08T15:34:15;21.30;;;20.10;;
12908;SDS011;6522;49.622;6.126;2023-09-08T15:37:02;21.73;;;20.53;;
12908;SDS011;6522;49.622;6.126;2023-09-08T15:39:48;22.23;;;21.03;;
12908;SDS011;6522;49.622;6.126;2023-09-08T15:42:35;23.03;;;21.87;;
12908;SDS011;6522;49.622;6.126;2023-09-08T15:45:21;22.47;;;21.37;;
12908;SDS011;6522;49.622;6.126;2023-09-08T15:48:08;21.23;;;20.23;;
12908;SDS011;6522;49.622;6.126;2023-09-08T15:50:55;22.13;;;20.57;;
12908;SDS011;6522;49.622;6.126;2023-09-08T15:53:42;19.70;;;18.50;;
12908;SDS011;6522;49.622;6.126;2023-09-08T15:56:29;23.20;;;22.00;;
12908;SDS011;6522;49.622;6.126;2023-09-08T15:59:15;24.30;;;22.80;;
12908;SDS011;6522;49.622;6.126;2023-09-08T16:02:02;22.97;;;21.87;;
12908;SDS011;6522;49.622;6.126;2023-09-08T16:04:49;22.87;;;21.77;;
12908;SDS011;6522;49.622;6.126;2023-09-08T16:07:36;23.70;;;22.50;;
12908;SDS011;6522;49.622;6.126;2023-09-08T16:10:23;22.67;;;21.40;;
12908;SDS011;6522;49.622;6.126;2023-09-08T16:13:10;22.80;;;21.50;;
12908;SDS011;6522;49.622;6.126;2023-09-08T16:15:56;23.53;;;22.23;;
12908;SDS011;6522;49.622;6.126;2023-09-08T16:18:43;24.80;;;23.30;;
12908;SDS011;6522;49.622;6.126;2023-09-08T16:21:30;24.27;;;22.67;;
12908;SDS011;6522;49.622;6.126;2023-09-08T16:24:16;23.77;;;22.43;;
12908;SDS011;6522;49.622;6.126;2023-09-08T16:27:03;23.53;;;22.00;;
12908;SDS011;6522;49.622;6.126;2023-09-08T16:29:50;24.00;;;22.60;;
12908;SDS011;6522;49.622;6.126;2023-09-08T16:32:37;25.03;;;23.63;;